Terminal Aerodrome Forecast
Issued by NWS Melbourne, FL

Home | Current Version | Previous Version | Text Only | Print | Product List | Glossary On
Versions: 1 2 3 4 5 6 7 8 9 10 11 12
000
FTUS42 KMLB 221700
TAFVRB
TAF
KVRB 221731Z 2218/2318 16012KT P6SM FEW025 SCT250
     FM230000 17005KT P6SM FEW020 SCT100 BKN250
     FM230800 17004KT 5SM BR SCT004 OVC010
     FM231500 17011KT P6SM SCT010 BKN020=

USA.gov is the U.S. government's official web portal to all federal, state and local government web resources and services.